sensor_id;sensor_type;location;lat;lon;timestamp;temperature;humidity
80412;SHT30;69749;42.684;23.360;2024-02-04T00:00:23;8.92;54.12
80412;SHT30;69749;42.684;23.360;2024-02-04T00:02:49;8.96;54.15
80412;SHT30;69749;42.684;23.360;2024-02-04T00:05:14;9.04;54.04
80412;SHT30;69749;42.684;23.360;2024-02-04T00:07:40;9.05;53.94
80412;SHT30;69749;42.684;23.360;2024-02-04T00:10:06;9.04;53.97
80412;SHT30;69749;42.684;23.360;2024-02-04T00:12:31;9.09;53.95
80412;SHT30;69749;42.684;23.360;2024-02-04T00:14:57;9.09;54.05
80412;SHT30;69749;42.684;23.360;2024-02-04T00:17:22;9.08;54.16
80412;SHT30;69749;42.684;23.360;2024-02-04T00:19:48;9.08;54.21
80412;SHT30;69749;42.684;23.360;2024-02-04T00:22:13;9.05;54.47
80412;SHT30;69749;42.684;23.360;2024-02-04T00:24:42;9.05;54.38
80412;SHT30;69749;42.684;23.360;2024-02-04T00:27:07;9.04;54.58
80412;SHT30;69749;42.684;23.360;2024-02-04T00:29:33;8.92;55.17
80412;SHT30;69749;42.684;23.360;2024-02-04T00:31:59;8.92;55.11
80412;SHT30;69749;42.684;23.360;2024-02-04T00:34:24;8.89;55.19
80412;SHT30;69749;42.684;23.360;2024-02-04T00:36:50;8.89;55.36
80412;SHT30;69749;42.684;23.360;2024-02-04T00:39:15;8.89;55.35
80412;SHT30;69749;42.684;23.360;2024-02-04T00:41:41;8.89;55.22
80412;SHT30;69749;42.684;23.360;2024-02-04T00:44:06;8.95;55.21
80412;SHT30;69749;42.684;23.360;2024-02-04T00:46:32;9.05;54.98
80412;SHT30;69749;42.684;23.360;2024-02-04T00:48:57;9.08;54.93
80412;SHT30;69749;42.684;23.360;2024-02-04T00:51:23;9.11;55.03
80412;SHT30;69749;42.684;23.360;2024-02-04T00:53:48;9.09;55.10
80412;SHT30;69749;42.684;23.360;2024-02-04T00:56:14;9.16;55.03
80412;SHT30;69749;42.684;23.360;2024-02-04T00:58:39;9.11;55.26
80412;SHT30;69749;42.684;23.360;2024-02-04T01:01:05;9.16;55.16
80412;SHT30;69749;42.684;23.360;2024-02-04T01:03:31;9.18;55.10
80412;SHT30;69749;42.684;23.360;2024-02-04T01:05:57;9.22;55.12
80412;SHT30;69749;42.684;23.360;2024-02-04T01:08:23;9.26;55.06
80412;SHT30;69749;42.684;23.360;2024-02-04T01:10:48;9.30;54.98
80412;SHT30;69749;42.684;23.360;2024-02-04T01:13:16;9.29;55.00
80412;SHT30;69749;42.684;23.360;2024-02-04T01:15:42;9.26;55.33
80412;SHT30;69749;42.684;23.360;2024-02-04T01:18:08;9.25;55.41
80412;SHT30;69749;42.684;23.360;2024-02-04T01:20:33;9.32;55.31
80412;SHT30;69749;42.684;23.360;2024-02-04T01:22:59;9.35;55.20
80412;SHT30;69749;42.684;23.360;2024-02-04T01:25:24;9.40;55.20
80412;SHT30;69749;42.684;23.360;2024-02-04T01:27:50;9.42;55.08
80412;SHT30;69749;42.684;23.360;2024-02-04T01:30:15;9.47;55.03
80412;SHT30;69749;42.684;23.360;2024-02-04T01:32:41;9.48;55.06
80412;SHT30;69749;42.684;23.360;2024-02-04T01:35:07;9.46;55.29
80412;SHT30;69749;42.684;23.360;2024-02-04T01:37:33;9.50;55.40
80412;SHT30;69749;42.684;23.360;2024-02-04T01:39:58;9.50;55.47
80412;SHT30;69749;42.684;23.360;2024-02-04T01:42:24;9.56;55.33
80412;SHT30;69749;42.684;23.360;2024-02-04T01:44:49;9.50;55.47
80412;SHT30;69749;42.684;23.360;2024-02-04T01:47:15;9.51;55.53
80412;SHT30;69749;42.684;23.360;2024-02-04T01:49:41;9.46;55.55
80412;SHT30;69749;42.684;23.360;2024-02-04T01:52:07;9.54;55.52
80412;SHT30;69749;42.684;23.360;2024-02-04T01:54:33;9.54;55.59
80412;SHT30;69749;42.684;23.360;2024-02-04T01:56:59;9.57;55.60
80412;SHT30;69749;42.684;23.360;2024-02-04T01:59:29;9.63;55.54
80412;SHT30;69749;42.684;23.360;2024-02-04T02:02:02;9.69;55.41
80412;SHT30;69749;42.684;23.360;2024-02-04T02:04:28;9.67;55.45
80412;SHT30;69749;42.684;23.360;2024-02-04T02:06:54;9.63;55.82
80412;SHT30;69749;42.684;23.360;2024-02-04T02:09:20;9.64;55.84
80412;SHT30;69749;42.684;23.360;2024-02-04T02:11:50;9.71;55.85
80412;SHT30;69749;42.684;23.360;2024-02-04T02:14:21;9.78;55.59
80412;SHT30;69749;42.684;23.360;2024-02-04T02:16:48;9.77;55.71
80412;SHT30;69749;42.684;23.360;2024-02-04T02:22:11;9.69;56.02
80412;SHT30;69749;42.684;23.360;2024-02-04T02:24:42;9.70;55.93
80412;SHT30;69749;42.684;23.360;2024-02-04T02:27:07;9.70;56.07
80412;SHT30;69749;42.684;23.360;2024-02-04T02:29:33;9.69;56.05
80412;SHT30;69749;42.684;23.360;2024-02-04T02:31:59;9.70;56.11
80412;SHT30;69749;42.684;23.360;2024-02-04T02:34:25;9.71;56.14
80412;SHT30;69749;42.684;23.360;2024-02-04T02:42:46;9.85;55.69
80412;SHT30;69749;42.684;23.360;2024-02-04T02:45:12;9.90;55.51
80412;SHT30;69749;42.684;23.360;2024-02-04T02:47:39;9.85;55.56
80412;SHT30;69749;42.684;23.360;2024-02-04T02:50:06;9.87;55.46
80412;SHT30;69749;42.684;23.360;2024-02-04T02:52:32;9.74;55.77
80412;SHT30;69749;42.684;23.360;2024-02-04T02:54:57;9.73;55.89
80412;SHT30;69749;42.684;23.360;2024-02-04T02:57:23;9.64;55.97
80412;SHT30;69749;42.684;23.360;2024-02-04T02:59:48;9.66;56.03
80412;SHT30;69749;42.684;23.360;2024-02-04T03:02:14;9.71;55.90
80412;SHT30;69749;42.684;23.360;2024-02-04T03:04:40;9.77;55.79
80412;SHT30;69749;42.684;23.360;2024-02-04T03:07:05;9.85;55.51
80412;SHT30;69749;42.684;23.360;2024-02-04T03:09:32;9.91;55.35
80412;SHT30;69749;42.684;23.360;2024-02-04T03:11:58;9.97;55.03
80412;SHT30;69749;42.684;23.360;2024-02-04T03:14:24;10.01;54.90
80412;SHT30;69749;42.684;23.360;2024-02-04T03:16:49;10.05;54.97
80412;SHT30;69749;42.684;23.360;2024-02-04T03:19:14;10.05;54.81
80412;SHT30;69749;42.684;23.360;2024-02-04T03:21:40;10.06;54.86
80412;SHT30;69749;42.684;23.360;2024-02-04T03:24:05;10.15;54.71
80412;SHT30;69749;42.684;23.360;2024-02-04T03:26:31;10.19;54.58
80412;SHT30;69749;42.684;23.360;2024-02-04T03:28:57;10.26;54.36
80412;SHT30;69749;42.684;23.360;2024-02-04T03:31:23;10.29;54.21
80412;SHT30;69749;42.684;23.360;2024-02-04T03:33:49;10.32;54.12
80412;SHT30;69749;42.684;23.360;2024-02-04T03:36:19;10.31;54.33
80412;SHT30;69749;42.684;23.360;2024-02-04T03:38:45;10.34;54.22
80412;SHT30;69749;42.684;23.360;2024-02-04T03:41:10;10.34;54.35
80412;SHT30;69749;42.684;23.360;2024-02-04T03:43:36;10.36;54.24
80412;SHT30;69749;42.684;23.360;2024-02-04T03:46:02;10.38;54.19
80412;SHT30;69749;42.684;23.360;2024-02-04T03:48:28;10.41;54.10
80412;SHT30;69749;42.684;23.360;2024-02-04T03:50:53;10.38;54.09
80412;SHT30;69749;42.684;23.360;2024-02-04T03:53:19;10.38;53.98
80412;SHT30;69749;42.684;23.360;2024-02-04T03:55:46;10.42;53.94
80412;SHT30;69749;42.684;23.360;2024-02-04T03:58:11;10.45;53.86
80412;SHT30;69749;42.684;23.360;2024-02-04T04:00:37;10.41;54.11
80412;SHT30;69749;42.684;23.360;2024-02-04T04:03:03;10.36;54.02
80412;SHT30;69749;42.684;23.360;2024-02-04T04:05:28;10.43;53.89
80412;SHT30;69749;42.684;23.360;2024-02-04T04:07:54;10.45;53.91
80412;SHT30;69749;42.684;23.360;2024-02-04T04:10:19;10.42;53.89
80412;SHT30;69749;42.684;23.360;2024-02-04T04:12:45;10.38;54.09
80412;SHT30;69749;42.684;23.360;2024-02-04T04:15:10;10.25;54.57
80412;SHT30;69749;42.684;23.360;2024-02-04T04:17:36;10.16;55.11
80412;SHT30;69749;42.684;23.360;2024-02-04T04:20:01;10.16;55.10
80412;SHT30;69749;42.684;23.360;2024-02-04T04:22:27;10.15;55.37
80412;SHT30;69749;42.684;23.360;2024-02-04T04:24:52;10.19;55.33
80412;SHT30;69749;42.684;23.360;2024-02-04T04:27:18;10.16;55.53
80412;SHT30;69749;42.684;23.360;2024-02-04T04:29:43;10.21;55.41
80412;SHT30;69749;42.684;23.360;2024-02-04T04:32:09;10.26;55.29
80412;SHT30;69749;42.684;23.360;2024-02-04T04:34:34;10.26;55.40
80412;SHT30;69749;42.684;23.360;2024-02-04T04:37:00;10.36;55.19
80412;SHT30;69749;42.684;23.360;2024-02-04T04:39:25;10.41;55.00
80412;SHT30;69749;42.684;23.360;2024-02-04T04:41:51;10.46;54.87
80412;SHT30;69749;42.684;23.360;2024-02-04T04:44:16;10.50;54.71
80412;SHT30;69749;42.684;23.360;2024-02-04T04:46:42;10.53;54.77
80412;SHT30;69749;42.684;23.360;2024-02-04T04:49:07;10.57;54.72
80412;SHT30;69749;42.684;23.360;2024-02-04T04:51:33;10.57;54.67
80412;SHT30;69749;42.684;23.360;2024-02-04T04:53:59;10.66;54.53
80412;SHT30;69749;42.684;23.360;2024-02-04T04:56:24;10.70;54.49
80412;SHT30;69749;42.684;23.360;2024-02-04T04:58:50;10.66;54.64
80412;SHT30;69749;42.684;23.360;2024-02-04T05:01:16;10.67;54.67
80412;SHT30;69749;42.684;23.360;2024-02-04T05:03:41;10.70;54.55
80412;SHT30;69749;42.684;23.360;2024-02-04T05:06:07;10.62;54.70
80412;SHT30;69749;42.684;23.360;2024-02-04T05:08:32;10.53;55.04
80412;SHT30;69749;42.684;23.360;2024-02-04T05:10:58;10.52;55.14
80412;SHT30;69749;42.684;23.360;2024-02-04T05:13:23;10.48;55.06
80412;SHT30;69749;42.684;23.360;2024-02-04T05:15:49;10.48;55.04
80412;SHT30;69749;42.684;23.360;2024-02-04T05:18:14;10.57;54.80
80412;SHT30;69749;42.684;23.360;2024-02-04T05:20:40;10.56;54.81
80412;SHT30;69749;42.684;23.360;2024-02-04T05:23:05;10.57;54.71
80412;SHT30;69749;42.684;23.360;2024-02-04T05:25:31;10.56;54.87
80412;SHT30;69749;42.684;23.360;2024-02-04T05:27:56;10.52;54.73
80412;SHT30;69749;42.684;23.360;2024-02-04T05:30:22;10.57;54.67
80412;SHT30;69749;42.684;23.360;2024-02-04T05:32:48;10.59;54.53
80412;SHT30;69749;42.684;23.360;2024-02-04T05:35:13;10.57;54.70
80412;SHT30;69749;42.684;23.360;2024-02-04T05:37:39;10.56;54.77
80412;SHT30;69749;42.684;23.360;2024-02-04T05:40:05;10.59;54.72
80412;SHT30;69749;42.684;23.360;2024-02-04T05:42:31;10.67;54.49
80412;SHT30;69749;42.684;23.360;2024-02-04T05:44:57;10.70;54.18
80412;SHT30;69749;42.684;23.360;2024-02-04T05:47:23;10.73;53.89
80412;SHT30;69749;42.684;23.360;2024-02-04T05:49:48;10.73;53.95
80412;SHT30;69749;42.684;23.360;2024-02-04T05:52:14;10.73;53.70
80412;SHT30;69749;42.684;23.360;2024-02-04T05:54:40;10.84;53.19
80412;SHT30;69749;42.684;23.360;2024-02-04T05:57:06;10.81;53.23
80412;SHT30;69749;42.684;23.360;2024-02-04T05:59:32;10.83;53.13
80412;SHT30;69749;42.684;23.360;2024-02-04T06:01:58;10.83;52.90
80412;SHT30;69749;42.684;23.360;2024-02-04T06:04:24;10.73;53.03
80412;SHT30;69749;42.684;23.360;2024-02-04T06:06:49;10.73;53.14
80412;SHT30;69749;42.684;23.360;2024-02-04T06:09:15;10.79;52.96
80412;SHT30;69749;42.684;23.360;2024-02-04T06:11:40;10.80;52.74
80412;SHT30;69749;42.684;23.360;2024-02-04T06:14:06;10.83;52.46
80412;SHT30;69749;42.684;23.360;2024-02-04T06:16:31;10.83;52.40
80412;SHT30;69749;42.684;23.360;2024-02-04T06:18:59;10.80;52.39
80412;SHT30;69749;42.684;23.360;2024-02-04T06:21:25;10.79;52.39
80412;SHT30;69749;42.684;23.360;2024-02-04T06:23:51;10.85;52.23
80412;SHT30;69749;42.684;23.360;2024-02-04T06:26:17;10.84;52.09
80412;SHT30;69749;42.684;23.360;2024-02-04T06:28:43;10.84;52.25
80412;SHT30;69749;42.684;23.360;2024-02-04T06:31:12;10.84;52.22
80412;SHT30;69749;42.684;23.360;2024-02-04T06:33:37;10.97;51.94
80412;SHT30;69749;42.684;23.360;2024-02-04T06:36:07;10.94;51.84
80412;SHT30;69749;42.684;23.360;2024-02-04T06:38:33;11.04;51.67
80412;SHT30;69749;42.684;23.360;2024-02-04T06:40:58;11.15;51.46
80412;SHT30;69749;42.684;23.360;2024-02-04T06:43:24;11.17;51.43
80412;SHT30;69749;42.684;23.360;2024-02-04T06:45:49;11.25;51.33
80412;SHT30;69749;42.684;23.360;2024-02-04T06:48:19;11.36;51.26
80412;SHT30;69749;42.684;23.360;2024-02-04T06:50:44;11.39;51.07
80412;SHT30;69749;42.684;23.360;2024-02-04T06:53:11;11.46;51.03
80412;SHT30;69749;42.684;23.360;2024-02-04T06:55:36;11.71;50.62
80412;SHT30;69749;42.684;23.360;2024-02-04T06:58:02;12.10;49.26
80412;SHT30;69749;42.684;23.360;2024-02-04T07:00:27;11.96;49.62
80412;SHT30;69749;42.684;23.360;2024-02-04T07:02:53;11.86;49.99
80412;SHT30;69749;42.684;23.360;2024-02-04T07:05:18;11.71;50.52
80412;SHT30;69749;42.684;23.360;2024-02-04T07:07:45;11.66;50.89
80412;SHT30;69749;42.684;23.360;2024-02-04T07:10:11;11.71;51.54
80412;SHT30;69749;42.684;23.360;2024-02-04T07:12:36;11.85;50.39
80412;SHT30;69749;42.684;23.360;2024-02-04T07:15:02;12.23;49.44
80412;SHT30;69749;42.684;23.360;2024-02-04T07:17:28;12.85;47.88
80412;SHT30;69749;42.684;23.360;2024-02-04T07:19:53;13.08;47.22
80412;SHT30;69749;42.684;23.360;2024-02-04T07:22:19;13.23;46.76
80412;SHT30;69749;42.684;23.360;2024-02-04T07:24:44;13.06;46.69
80412;SHT30;69749;42.684;23.360;2024-02-04T07:27:10;12.91;47.32
80412;SHT30;69749;42.684;23.360;2024-02-04T07:29:36;12.77;47.96
80412;SHT30;69749;42.684;23.360;2024-02-04T07:32:01;12.69;48.19
80412;SHT30;69749;42.684;23.360;2024-02-04T07:34:26;12.54;48.41
80412;SHT30;69749;42.684;23.360;2024-02-04T07:36:52;12.41;48.75
80412;SHT30;69749;42.684;23.360;2024-02-04T07:39:18;12.40;49.03
80412;SHT30;69749;42.684;23.360;2024-02-04T07:41:43;12.33;49.02
80412;SHT30;69749;42.684;23.360;2024-02-04T07:44:09;12.30;49.39
80412;SHT30;69749;42.684;23.360;2024-02-04T07:46:34;12.33;48.98
80412;SHT30;69749;42.684;23.360;2024-02-04T07:49:00;12.34;49.04
80412;SHT30;69749;42.684;23.360;2024-02-04T07:51:25;12.34;48.79
80412;SHT30;69749;42.684;23.360;2024-02-04T07:53:51;12.21;49.15
80412;SHT30;69749;42.684;23.360;2024-02-04T07:56:16;12.37;48.78
80412;SHT30;69749;42.684;23.360;2024-02-04T07:58:42;13.42;46.48
80412;SHT30;69749;42.684;23.360;2024-02-04T08:01:08;15.00;42.87
80412;SHT30;69749;42.684;23.360;2024-02-04T08:03:33;15.62;40.78
80412;SHT30;69749;42.684;23.360;2024-02-04T08:05:59;15.46;40.62
80412;SHT30;69749;42.684;23.360;2024-02-04T08:08:24;15.00;41.64
80412;SHT30;69749;42.684;23.360;2024-02-04T08:10:50;14.70;42.60
80412;SHT30;69749;42.684;23.360;2024-02-04T08:13:15;15.11;41.67
80412;SHT30;69749;42.684;23.360;2024-02-04T08:15:40;14.93;41.84
80412;SHT30;69749;42.684;23.360;2024-02-04T08:18:06;15.86;40.34
80412;SHT30;69749;42.684;23.360;2024-02-04T08:20:31;15.87;39.74
80412;SHT30;69749;42.684;23.360;2024-02-04T08:22:57;15.82;39.62
80412;SHT30;69749;42.684;23.360;2024-02-04T08:25:22;15.75;39.84
80412;SHT30;69749;42.684;23.360;2024-02-04T08:27:48;15.70;39.67
80412;SHT30;69749;42.684;23.360;2024-02-04T08:30:13;15.53;40.20
80412;SHT30;69749;42.684;23.360;2024-02-04T08:32:39;15.24;40.62
80412;SHT30;69749;42.684;23.360;2024-02-04T08:35:05;14.62;42.00
80412;SHT30;69749;42.684;23.360;2024-02-04T08:37:34;14.35;43.05
80412;SHT30;69749;42.684;23.360;2024-02-04T08:40:01;14.43;43.07
80412;SHT30;69749;42.684;23.360;2024-02-04T08:42:26;15.23;41.91
80412;SHT30;69749;42.684;23.360;2024-02-04T08:44:52;15.28;41.45
80412;SHT30;69749;42.684;23.360;2024-02-04T08:47:17;16.50;39.03
80412;SHT30;69749;42.684;23.360;2024-02-04T08:49:49;19.18;34.08
80412;SHT30;69749;42.684;23.360;2024-02-04T08:52:15;19.51;33.67
80412;SHT30;69749;42.684;23.360;2024-02-04T08:54:40;18.96;33.95
80412;SHT30;69749;42.684;23.360;2024-02-04T08:57:06;17.60;35.99
80412;SHT30;69749;42.684;23.360;2024-02-04T08:59:32;16.47;38.16
80412;SHT30;69749;42.684;23.360;2024-02-04T09:01:57;15.46;40.49
80412;SHT30;69749;42.684;23.360;2024-02-04T09:04:22;15.25;41.09
80412;SHT30;69749;42.684;23.360;2024-02-04T09:06:48;15.05;41.84
80412;SHT30;69749;42.684;23.360;2024-02-04T09:09:13;14.69;42.91
80412;SHT30;69749;42.684;23.360;2024-02-04T09:11:39;14.39;43.49
80412;SHT30;69749;42.684;23.360;2024-02-04T09:14:04;14.16;44.07
80412;SHT30;69749;42.684;23.360;2024-02-04T09:16:30;14.04;44.70
80412;SHT30;69749;42.684;23.360;2024-02-04T09:18:55;13.97;44.69
80412;SHT30;69749;42.684;23.360;2024-02-04T09:21:21;13.92;44.91
80412;SHT30;69749;42.684;23.360;2024-02-04T09:23:47;13.77;45.22
80412;SHT30;69749;42.684;23.360;2024-02-04T09:26:13;13.74;45.39
80412;SHT30;69749;42.684;23.360;2024-02-04T09:28:38;13.71;45.44
80412;SHT30;69749;42.684;23.360;2024-02-04T09:31:04;13.71;45.53
80412;SHT30;69749;42.684;23.360;2024-02-04T09:33:30;13.70;45.58
80412;SHT30;69749;42.684;23.360;2024-02-04T09:35:55;13.74;45.72
80412;SHT30;69749;42.684;23.360;2024-02-04T09:38:21;15.72;41.67
80412;SHT30;69749;42.684;23.360;2024-02-04T09:40:46;17.57;37.56
80412;SHT30;69749;42.684;23.360;2024-02-04T09:43:13;18.55;36.04
80412;SHT30;69749;42.684;23.360;2024-02-04T09:45:39;20.30;33.32
80412;SHT30;69749;42.684;23.360;2024-02-04T09:48:06;21.44;31.27
80412;SHT30;69749;42.684;23.360;2024-02-04T09:50:33;21.78;30.43
80412;SHT30;69749;42.684;23.360;2024-02-04T09:52:59;19.61;33.39
80412;SHT30;69749;42.684;23.360;2024-02-04T09:55:29;19.77;33.74
80412;SHT30;69749;42.684;23.360;2024-02-04T09:57:55;20.83;32.11
80412;SHT30;69749;42.684;23.360;2024-02-04T10:00:21;21.00;31.65
80412;SHT30;69749;42.684;23.360;2024-02-04T10:02:47;21.02;31.81
80412;SHT30;69749;42.684;23.360;2024-02-04T10:05:14;20.75;32.15
80412;SHT30;69749;42.684;23.360;2024-02-04T10:07:40;20.52;32.39
80412;SHT30;69749;42.684;23.360;2024-02-04T10:10:06;20.31;33.03
80412;SHT30;69749;42.684;23.360;2024-02-04T10:12:32;20.38;32.99
80412;SHT30;69749;42.684;23.360;2024-02-04T10:14:59;20.14;33.38
80412;SHT30;69749;42.684;23.360;2024-02-04T10:17:25;19.90;33.92
80412;SHT30;69749;42.684;23.360;2024-02-04T10:19:50;19.15;35.04
80412;SHT30;69749;42.684;23.360;2024-02-04T10:22:16;18.35;36.56
80412;SHT30;69749;42.684;23.360;2024-02-04T10:24:44;17.88;37.61
80412;SHT30;69749;42.684;23.360;2024-02-04T10:27:12;17.71;38.10
80412;SHT30;69749;42.684;23.360;2024-02-04T10:29:37;17.67;38.33
80412;SHT30;69749;42.684;23.360;2024-02-04T10:32:03;17.40;38.51
80412;SHT30;69749;42.684;23.360;2024-02-04T10:34:29;17.09;39.47
80412;SHT30;69749;42.684;23.360;2024-02-04T10:36:56;16.83;39.94
80412;SHT30;69749;42.684;23.360;2024-02-04T10:39:21;16.79;40.00
80412;SHT30;69749;42.684;23.360;2024-02-04T10:41:49;16.67;40.39
80412;SHT30;69749;42.684;23.360;2024-02-04T10:44:23;16.42;40.93
80412;SHT30;69749;42.684;23.360;2024-02-04T10:46:50;16.09;41.64
80412;SHT30;69749;42.684;23.360;2024-02-04T10:49:17;16.07;41.97
80412;SHT30;69749;42.684;23.360;2024-02-04T10:51:45;15.94;42.30
80412;SHT30;69749;42.684;23.360;2024-02-04T10:54:14;15.99;42.52
80412;SHT30;69749;42.684;23.360;2024-02-04T10:56:46;16.09;42.21
80412;SHT30;69749;42.684;23.360;2024-02-04T10:59:18;16.14;41.95
80412;SHT30;69749;42.684;23.360;2024-02-04T11:01:45;16.07;42.17
80412;SHT30;69749;42.684;23.360;2024-02-04T11:04:14;16.10;42.35
80412;SHT30;69749;42.684;23.360;2024-02-04T11:06:40;15.94;42.49
80412;SHT30;69749;42.684;23.360;2024-02-04T11:09:08;15.92;42.48
80412;SHT30;69749;42.684;23.360;2024-02-04T11:11:36;16.21;41.97
80412;SHT30;69749;42.684;23.360;2024-02-04T11:14:02;16.47;41.38
80412;SHT30;69749;42.684;23.360;2024-02-04T11:25:44;16.91;40.09
80412;SHT30;69749;42.684;23.360;2024-02-04T11:28:12;17.03;40.16
80412;SHT30;69749;42.684;23.360;2024-02-04T11:30:38;16.91;39.97
80412;SHT30;69749;42.684;23.360;2024-02-04T11:33:04;16.76;40.51
80412;SHT30;69749;42.684;23.360;2024-02-04T11:35:32;16.72;40.67
80412;SHT30;69749;42.684;23.360;2024-02-04T11:37:57;16.61;41.03
80412;SHT30;69749;42.684;23.360;2024-02-04T11:40:23;16.50;41.08
80412;SHT30;69749;42.684;23.360;2024-02-04T11:42:49;16.34;41.37
80412;SHT30;69749;42.684;23.360;2024-02-04T11:45:16;16.10;42.15
80412;SHT30;69749;42.684;23.360;2024-02-04T11:47:42;15.93;42.39
80412;SHT30;69749;42.684;23.360;2024-02-04T11:50:08;15.93;42.40
80412;SHT30;69749;42.684;23.360;2024-02-04T11:52:35;16.02;42.52
80412;SHT30;69749;42.684;23.360;2024-02-04T11:55:00;16.12;42.21
80412;SHT30;69749;42.684;23.360;2024-02-04T11:57:26;16.20;41.81
80412;SHT30;69749;42.684;23.360;2024-02-04T11:59:53;16.23;41.71
80412;SHT30;69749;42.684;23.360;2024-02-04T12:02:20;16.25;41.44
80412;SHT30;69749;42.684;23.360;2024-02-04T12:04:49;16.12;41.60
80412;SHT30;69749;42.684;23.360;2024-02-04T12:07:16;16.12;41.57
80412;SHT30;69749;42.684;23.360;2024-02-04T12:09:42;16.03;41.83
80412;SHT30;69749;42.684;23.360;2024-02-04T12:12:08;15.97;41.73
80412;SHT30;69749;42.684;23.360;2024-02-04T12:14:35;16.00;41.58
80412;SHT30;69749;42.684;23.360;2024-02-04T12:17:07;15.90;41.75
80412;SHT30;69749;42.684;23.360;2024-02-04T12:19:34;15.97;41.37
80412;SHT30;69749;42.684;23.360;2024-02-04T12:21:59;16.10;41.05
80412;SHT30;69749;42.684;23.360;2024-02-04T12:24:25;16.21;41.00
80412;SHT30;69749;42.684;23.360;2024-02-04T12:26:51;16.24;41.05
80412;SHT30;69749;42.684;23.360;2024-02-04T12:29:17;16.18;41.36
80412;SHT30;69749;42.684;23.360;2024-02-04T12:31:42;16.14;41.31
80412;SHT30;69749;42.684;23.360;2024-02-04T12:34:08;16.24;41.33
80412;SHT30;69749;42.684;23.360;2024-02-04T12:36:34;16.35;40.89
80412;SHT30;69749;42.684;23.360;2024-02-04T12:39:01;16.35;40.62
80412;SHT30;69749;42.684;23.360;2024-02-04T12:41:27;16.24;40.35
80412;SHT30;69749;42.684;23.360;2024-02-04T12:43:59;16.09;40.69
80412;SHT30;69749;42.684;23.360;2024-02-04T12:46:26;15.94;41.11
80412;SHT30;69749;42.684;23.360;2024-02-04T12:48:56;15.79;41.76
80412;SHT30;69749;42.684;23.360;2024-02-04T12:51:29;15.36;42.50
80412;SHT30;69749;42.684;23.360;2024-02-04T12:54:09;15.31;42.83
80412;SHT30;69749;42.684;23.360;2024-02-04T12:56:51;15.31;42.90
80412;SHT30;69749;42.684;23.360;2024-02-04T12:59:30;15.21;42.89
80412;SHT30;69749;42.684;23.360;2024-02-04T13:02:01;15.11;43.42
80412;SHT30;69749;42.684;23.360;2024-02-04T13:04:37;14.94;43.62
80412;SHT30;69749;42.684;23.360;2024-02-04T13:07:07;14.83;43.87
80412;SHT30;69749;42.684;23.360;2024-02-04T13:09:32;14.65;44.10
80412;SHT30;69749;42.684;23.360;2024-02-04T13:12:08;14.63;44.50
80412;SHT30;69749;42.684;23.360;2024-02-04T13:14:37;14.66;44.49
80412;SHT30;69749;42.684;23.360;2024-02-04T13:17:06;14.84;44.13
80412;SHT30;69749;42.684;23.360;2024-02-04T13:19:35;14.76;43.91
80412;SHT30;69749;42.684;23.360;2024-02-04T13:22:02;14.69;44.38
80412;SHT30;69749;42.684;23.360;2024-02-04T13:24:31;14.57;44.42
80412;SHT30;69749;42.684;23.360;2024-02-04T13:26:57;14.62;44.38
80412;SHT30;69749;42.684;23.360;2024-02-04T13:29:24;14.55;44.65
80412;SHT30;69749;42.684;23.360;2024-02-04T13:31:49;14.52;44.79
80412;SHT30;69749;42.684;23.360;2024-02-04T13:34:15;14.56;44.74
80412;SHT30;69749;42.684;23.360;2024-02-04T13:36:42;14.43;44.88
80412;SHT30;69749;42.684;23.360;2024-02-04T13:39:07;14.19;45.55
80412;SHT30;69749;42.684;23.360;2024-02-04T13:41:33;14.09;45.84
80412;SHT30;69749;42.684;23.360;2024-02-04T13:43:58;14.14;45.82
80412;SHT30;69749;42.684;23.360;2024-02-04T13:46:24;14.12;45.92
80412;SHT30;69749;42.684;23.360;2024-02-04T13:48:50;14.19;45.73
80412;SHT30;69749;42.684;23.360;2024-02-04T13:51:15;14.16;45.96
80412;SHT30;69749;42.684;23.360;2024-02-04T13:53:41;14.26;45.64
80412;SHT30;69749;42.684;23.360;2024-02-04T13:56:06;14.26;45.53
80412;SHT30;69749;42.684;23.360;2024-02-04T13:58:32;14.18;45.61
80412;SHT30;69749;42.684;23.360;2024-02-04T14:00:57;13.98;46.10
80412;SHT30;69749;42.684;23.360;2024-02-04T14:03:24;13.87;46.36
80412;SHT30;69749;42.684;23.360;2024-02-04T14:05:49;13.81;46.59
80412;SHT30;69749;42.684;23.360;2024-02-04T14:08:15;13.78;46.65
80412;SHT30;69749;42.684;23.360;2024-02-04T14:10:40;13.70;46.85
80412;SHT30;69749;42.684;23.360;2024-02-04T14:13:06;13.54;47.29
80412;SHT30;69749;42.684;23.360;2024-02-04T14:15:32;13.60;47.39
80412;SHT30;69749;42.684;23.360;2024-02-04T14:17:58;13.63;47.25
80412;SHT30;69749;42.684;23.360;2024-02-04T14:20:23;13.63;47.26
80412;SHT30;69749;42.684;23.360;2024-02-04T14:22:49;13.61;47.36
80412;SHT30;69749;42.684;23.360;2024-02-04T14:25:16;13.54;47.48
80412;SHT30;69749;42.684;23.360;2024-02-04T14:27:42;13.67;47.44
80412;SHT30;69749;42.684;23.360;2024-02-04T14:30:08;13.78;47.10
80412;SHT30;69749;42.684;23.360;2024-02-04T14:32:33;13.84;46.81
80412;SHT30;69749;42.684;23.360;2024-02-04T14:34:59;13.92;46.66
80412;SHT30;69749;42.684;23.360;2024-02-04T14:37:24;13.85;46.72
80412;SHT30;69749;42.684;23.360;2024-02-04T14:39:50;13.88;46.74
80412;SHT30;69749;42.684;23.360;2024-02-04T14:42:16;13.89;46.69
80412;SHT30;69749;42.684;23.360;2024-02-04T14:44:43;13.85;46.89
80412;SHT30;69749;42.684;23.360;2024-02-04T14:47:09;13.81;46.92
80412;SHT30;69749;42.684;23.360;2024-02-04T14:49:36;13.60;47.40
80412;SHT30;69749;42.684;23.360;2024-02-04T14:52:02;13.56;47.63
80412;SHT30;69749;42.684;23.360;2024-02-04T14:54:28;13.58;47.52
80412;SHT30;69749;42.684;23.360;2024-02-04T14:56:53;13.58;47.44
80412;SHT30;69749;42.684;23.360;2024-02-04T14:59:19;13.56;47.56
80412;SHT30;69749;42.684;23.360;2024-02-04T15:01:45;13.49;47.86
80412;SHT30;69749;42.684;23.360;2024-02-04T15:04:14;13.49;47.86
80412;SHT30;69749;42.684;23.360;2024-02-04T15:06:40;13.44;48.04
80412;SHT30;69749;42.684;23.360;2024-02-04T15:09:06;13.37;48.32
80412;SHT30;69749;42.684;23.360;2024-02-04T15:11:32;13.35;48.35
80412;SHT30;69749;42.684;23.360;2024-02-04T15:13:59;13.24;48.67
80412;SHT30;69749;42.684;23.360;2024-02-04T15:16:28;13.18;48.94
80412;SHT30;69749;42.684;23.360;2024-02-04T15:18:54;13.12;49.18
80412;SHT30;69749;42.684;23.360;2024-02-04T15:21:19;12.99;49.41
80412;SHT30;69749;42.684;23.360;2024-02-04T15:23:45;12.99;49.40
80412;SHT30;69749;42.684;23.360;2024-02-04T15:26:11;12.91;49.68
80412;SHT30;69749;42.684;23.360;2024-02-04T15:28:38;12.87;49.75
80412;SHT30;69749;42.684;23.360;2024-02-04T15:31:04;12.87;49.90